createdAt,value
2022-08-11T00:01:19.316Z,63.30
2022-08-11T00:04:23.868Z,64.00
2022-08-11T00:07:26.959Z,63.60
2022-08-11T00:10:29.759Z,63.80
2022-08-11T00:13:33.971Z,63.90
2022-08-11T00:16:35.669Z,64.50
2022-08-11T00:20:13.044Z,64.00
2022-08-11T00:23:18.352Z,64.70
2022-08-11T00:26:23.647Z,65.90
2022-08-11T00:29:25.284Z,65.30
2022-08-11T00:32:28.519Z,65.40
2022-08-11T00:35:55.089Z,65.70
2022-08-11T00:38:55.415Z,69.50
2022-08-11T00:42:10.545Z,66.20
2022-08-11T00:45:28.489Z,67.10
2022-08-11T00:48:45.149Z,65.20
2022-08-11T00:52:13.080Z,67.30
2022-08-11T00:55:26.681Z,65.20
2022-08-11T00:58:37.426Z,65.40
2022-08-11T01:02:31.899Z,67.60
2022-08-11T01:06:10.955Z,65.20
2022-08-11T01:09:41.631Z,65.80
2022-08-11T01:12:45.812Z,65.70
2022-08-11T01:16:06.252Z,67.90
2022-08-11T01:19:10.834Z,66.10
2022-08-11T01:22:12.361Z,63.90
2022-08-11T01:25:56.915Z,68.00
2022-08-11T01:29:21.074Z,66.70
2022-08-11T01:32:40.587Z,67.20
2022-08-11T01:36:03.852Z,67.50
2022-08-11T01:39:05.397Z,67.60
2022-08-11T01:43:00.061Z,69.50
2022-08-11T01:46:10.829Z,68.00
2022-08-11T01:50:08.617Z,70.00
2022-08-11T01:53:05.054Z,70.40
2022-08-11T01:56:34.437Z,65.40
2022-08-11T01:59:48.638Z,68.50
2022-08-11T02:03:04.392Z,70.00
2022-08-11T02:06:55.102Z,70.90
2022-08-11T02:10:35.571Z,68.80
2022-08-11T02:13:52.110Z,70.80
2022-08-11T02:17:12.363Z,69.10
2022-08-11T02:20:41.179Z,68.90
2022-08-11T02:24:00.508Z,71.30
2022-08-11T04:16:20.370Z,70.60
2022-08-11T04:20:02.274Z,73.90
2022-08-11T04:24:35.916Z,71.80
2022-08-11T04:26:51.723Z,72.60
2022-08-11T04:30:03.702Z,73.80
2022-08-11T04:37:42.193Z,72.80
2022-08-11T04:41:31.958Z,74.20
2022-08-11T04:44:52.220Z,71.30
2022-08-11T04:48:35.126Z,73.50
2022-08-11T04:52:37.714Z,71.60
2022-08-11T04:56:18.376Z,71.50
2022-08-11T05:00:11.541Z,72.00
2022-08-11T05:03:23.319Z,74.70
2022-08-11T05:07:00.148Z,74.40
2022-08-11T05:10:25.686Z,71.90
2022-08-11T05:13:52.835Z,71.90
2022-08-11T05:17:16.826Z,74.10
2022-08-11T05:20:50.948Z,74.70
2022-08-11T05:24:22.009Z,73.40
2022-08-11T05:27:52.174Z,74.60
2022-08-11T05:31:21.191Z,74.20
2022-08-11T05:34:43.664Z,74.60
2022-08-11T05:38:04.622Z,75.20
2022-08-11T05:41:26.195Z,73.40
2022-08-11T05:44:47.948Z,73.60
2022-08-11T05:48:09.551Z,74.20
2022-08-11T05:51:30.824Z,75.20
2022-08-11T05:54:51.926Z,72.60
2022-08-11T05:58:00.418Z,73.40
2022-08-11T06:01:02.984Z,74.60
2022-08-11T06:04:17.169Z,74.80
2022-08-11T06:07:26.571Z,74.90
2022-08-11T06:10:35.809Z,73.30
2022-08-11T06:13:45.085Z,73.40
2022-08-11T06:16:52.994Z,73.40
2022-08-11T06:20:07.295Z,73.90
2022-08-11T06:23:10.644Z,71.70
2022-08-11T06:26:14.257Z,72.70
2022-08-11T06:29:19.743Z,72.60
2022-08-11T06:32:43.360Z,72.00
2022-08-11T06:35:53.739Z,73.10
2022-08-11T06:39:02.244Z,70.70
2022-08-11T06:42:06.912Z,69.00
2022-08-11T06:45:40.375Z,71.10
2022-08-11T06:48:44.846Z,68.90
2022-08-11T06:51:48.263Z,71.40
2022-08-11T06:55:05.427Z,71.40
2022-08-11T06:58:35.943Z,72.20
2022-08-11T07:01:46.620Z,68.40
2022-08-11T07:05:09.072Z,70.50
2022-08-11T07:09:01.052Z,67.80
2022-08-11T07:12:58.706Z,67.30
2022-08-11T07:16:11.180Z,67.20
2022-08-11T07:19:42.533Z,68.60
2022-08-11T07:23:11.308Z,68.60
2022-08-11T07:26:32.565Z,68.20
2022-08-11T07:29:36.387Z,67.50
2022-08-11T07:32:54.693Z,68.50
2022-08-11T07:35:59.949Z,67.90
2022-08-11T07:39:02.751Z,67.40
2022-08-11T07:42:10.591Z,68.50
2022-08-11T07:45:32.011Z,66.90
2022-08-11T07:48:52.978Z,66.70
2022-08-11T07:52:14.278Z,66.50
2022-08-11T07:55:17.807Z,66.70
2022-08-11T07:58:45.223Z,67.40
2022-08-11T08:02:13.126Z,66.90
2022-08-11T08:05:35.171Z,65.70
2022-08-11T08:08:58.738Z,66.50
2022-08-11T08:12:22.770Z,66.10
2022-08-11T08:15:43.292Z,65.60
2022-08-11T08:18:45.393Z,64.60
2022-08-11T08:21:48.312Z,65.80
2022-08-11T08:24:50.790Z,65.50
2022-08-11T08:27:54.228Z,65.00
2022-08-11T08:30:57.258Z,66.30
2022-08-11T08:34:00.980Z,65.20
2022-08-11T08:37:15.894Z,65.90
2022-08-11T08:40:25.860Z,64.70
2022-08-11T08:43:27.962Z,64.80
2022-08-11T08:46:36.971Z,65.40
2022-08-11T08:49:43.920Z,63.40
2022-08-11T08:53:00.758Z,63.90
2022-08-11T08:56:03.492Z,63.60
2022-08-11T08:59:05.942Z,63.20
2022-08-11T09:02:12.937Z,63.00
2022-08-11T09:05:17.984Z,65.10
2022-08-11T09:08:21.625Z,62.60
2022-08-11T09:11:42.591Z,69.40
2022-08-11T09:15:05.673Z,62.80
2022-08-11T09:18:09.231Z,63.00
2022-08-11T09:21:15.458Z,61.90
2022-08-11T09:24:56.745Z,62.60
2022-08-11T09:27:59.133Z,62.40
2022-08-11T09:31:01.918Z,61.80
2022-08-11T09:34:03.997Z,61.40
2022-08-11T09:37:53.768Z,62.20
2022-08-11T09:40:56.275Z,61.30
2022-08-11T09:44:18.837Z,62.40
2022-08-11T09:47:26.800Z,58.60
2022-08-11T09:50:28.695Z,60.20
2022-08-11T09:53:41.022Z,59.50
2022-08-11T09:57:05.209Z,60.00
2022-08-11T10:00:13.586Z,59.10
2022-08-11T10:03:19.095Z,58.40
2022-08-11T10:06:39.363Z,60.30
2022-08-11T10:10:02.117Z,57.60
2022-08-11T10:14:32.051Z,56.90
2022-08-11T10:16:32.913Z,58.70
2022-08-11T10:19:38.777Z,58.40
2022-08-11T10:22:59.626Z,58.40
2022-08-11T10:26:21.787Z,57.70
2022-08-11T10:29:49.647Z,58.00
2022-08-11T10:33:10.818Z,56.50
2022-08-11T10:36:21.043Z,57.00
2022-08-11T10:39:23.793Z,56.70
2022-08-11T10:42:57.355Z,57.10
2022-08-11T10:46:30.314Z,56.60
2022-08-11T10:49:35.910Z,55.30
2022-08-11T10:52:58.210Z,56.80
2022-08-11T10:56:19.626Z,56.80
2022-08-11T10:59:23.280Z,55.40
2022-08-11T11:02:27.200Z,55.50
2022-08-11T11:05:31.331Z,55.50
2022-08-11T11:08:56.385Z,57.10
2022-08-11T11:12:30.259Z,55.60
2022-08-11T11:15:54.195Z,56.90
2022-08-11T11:19:00.696Z,56.30
2022-08-11T11:22:23.244Z,55.90
2022-08-11T11:25:37.260Z,54.00
2022-08-11T11:28:47.791Z,55.50
2022-08-11T11:32:04.770Z,53.00
2022-08-11T11:35:29.307Z,56.10
2022-08-11T11:38:31.050Z,55.30
2022-08-11T11:41:33.082Z,54.20
2022-08-11T11:44:37.516Z,55.60
2022-08-11T11:47:39.567Z,54.90
2022-08-11T11:50:41.532Z,54.30
2022-08-11T11:53:45.308Z,54.40
2022-08-11T11:56:47.167Z,53.20
2022-08-11T12:00:09.521Z,54.70
2022-08-11T12:03:12.026Z,55.20
2022-08-11T12:06:14.292Z,55.50
2022-08-11T12:09:22.066Z,53.70
2022-08-11T12:12:44.212Z,54.60
2022-08-11T12:16:31.229Z,53.50
2022-08-11T12:19:16.692Z,53.60
2022-08-11T12:22:37.305Z,54.80
2022-08-11T12:26:23.305Z,53.70
2022-08-11T12:29:27.072Z,53.60
2022-08-11T12:32:31.576Z,52.70
2022-08-11T12:35:35.130Z,52.70
2022-08-11T12:38:37.367Z,52.20
2022-08-11T12:42:00.432Z,53.00
2022-08-11T12:45:28.611Z,53.20
2022-08-11T12:48:58.297Z,52.10
2022-08-11T12:52:13.530Z,53.10
2022-08-11T12:55:39.180Z,52.20
2022-08-11T12:58:42.872Z,52.80
2022-08-11T13:02:03.460Z,52.10
2022-08-11T13:05:08.429Z,50.20
2022-08-11T13:08:10.248Z,50.90
2022-08-11T13:11:55.513Z,52.20
2022-08-11T13:14:56.032Z,51.20
2022-08-11T13:17:59.601Z,51.00
2022-08-11T13:21:02.023Z,50.90
2022-08-11T13:24:04.152Z,50.20
2022-08-11T13:27:06.383Z,49.80
2022-08-11T13:30:26.866Z,50.90
2022-08-11T13:33:29.436Z,48.90
2022-08-11T13:36:31.113Z,51.20
2022-08-11T13:39:34.544Z,51.00
2022-08-11T13:42:37.940Z,51.40
2022-08-11T13:45:40.114Z,49.00
2022-08-11T13:48:42.718Z,49.40
2022-08-11T13:51:45.022Z,49.10
2022-08-11T13:54:48.336Z,49.00
2022-08-11T13:58:06.423Z,49.60
2022-08-11T14:02:04.011Z,48.20
2022-08-11T14:04:55.219Z,47.70
2022-08-11T14:08:02.410Z,46.90
2022-08-11T14:12:20.278Z,49.10
2022-08-11T14:14:56.468Z,47.00
2022-08-11T14:18:05.585Z,47.80
2022-08-11T14:21:26.202Z,47.80
2022-08-11T14:24:29.145Z,49.40
2022-08-11T14:28:30.271Z,46.90
2022-08-11T14:31:00.404Z,47.30
2022-08-11T14:34:06.523Z,46.50
2022-08-11T14:37:13.605Z,46.90
2022-08-11T14:40:38.957Z,44.50
2022-08-11T14:44:12.359Z,47.20
2022-08-11T14:47:24.759Z,45.90
2022-08-11T14:50:29.930Z,46.20
2022-08-11T14:53:32.482Z,45.80
2022-08-11T14:56:37.242Z,45.10
2022-08-11T14:59:39.383Z,44.00
2022-08-11T15:03:00.817Z,46.20
2022-08-11T15:06:05.007Z,45.20
2022-08-11T15:09:09.095Z,45.60
2022-08-11T15:12:32.591Z,46.10
2022-08-11T15:15:55.708Z,45.80
2022-08-11T15:18:58.580Z,44.90
2022-08-11T15:22:19.858Z,46.10
2022-08-11T15:25:23.539Z,47.00
2022-08-11T15:28:46.609Z,47.10
2022-08-11T15:32:06.970Z,46.70
2022-08-11T15:35:33.715Z,45.70
2022-08-11T15:38:47.187Z,47.80
2022-08-11T15:42:18.686Z,48.70
2022-08-11T15:45:43.222Z,46.50
2022-08-11T15:48:57.764Z,48.80
2022-08-11T15:52:19.524Z,46.80
2022-08-11T15:55:23.670Z,49.40
2022-08-11T15:58:48.818Z,47.80
2022-08-11T16:02:17.698Z,50.20
2022-08-11T16:05:46.014Z,50.80
2022-08-11T16:08:44.826Z,48.60
2022-08-11T16:11:48.338Z,48.40
2022-08-11T16:15:12.643Z,49.70
2022-08-11T16:18:17.683Z,49.90
2022-08-11T16:21:33.585Z,51.00
2022-08-11T16:27:04.807Z,49.80
2022-08-11T16:28:07.275Z,50.20
2022-08-11T16:31:10.736Z,51.00
2022-08-11T16:34:32.799Z,50.30
2022-08-11T16:37:54.788Z,49.90
2022-08-11T16:40:58.562Z,49.40
2022-08-11T16:44:18.768Z,49.10
2022-08-11T16:48:03.154Z,48.20
2022-08-11T16:50:59.719Z,50.20
2022-08-11T16:54:06.119Z,49.00
2022-08-11T16:57:34.259Z,50.00
2022-08-11T17:00:37.002Z,48.90
2022-08-11T17:04:04.497Z,50.00
2022-08-11T17:07:40.081Z,49.80
2022-08-11T17:11:29.916Z,49.80
2022-08-11T17:14:43.560Z,50.20
2022-08-11T17:17:46.119Z,50.60
2022-08-11T17:20:47.800Z,49.50
2022-08-11T17:23:54.781Z,49.70
2022-08-11T17:26:58.011Z,49.60
2022-08-11T17:30:02.896Z,49.40
2022-08-11T17:33:23.874Z,48.40
2022-08-11T17:36:25.923Z,48.20
2022-08-11T17:39:31.422Z,49.20
2022-08-11T17:42:52.739Z,48.80
2022-08-11T17:46:05.116Z,48.80
2022-08-11T17:49:12.532Z,47.80
2022-08-11T17:52:35.596Z,45.60
2022-08-11T17:56:02.835Z,45.90
2022-08-11T17:59:26.033Z,46.20
2022-08-11T18:03:01.158Z,46.90
2022-08-11T18:06:04.489Z,44.50
2022-08-11T18:09:36.160Z,46.40
2022-08-11T18:12:56.780Z,47.20
2022-08-11T18:16:17.196Z,46.80
2022-08-11T18:19:37.508Z,47.00
2022-08-11T18:23:01.551Z,47.20
2022-08-11T18:26:25.019Z,50.20
2022-08-11T18:29:46.808Z,49.40
2022-08-11T18:33:44.715Z,49.00
2022-08-11T18:37:00.014Z,51.00
2022-08-11T18:40:25.309Z,47.80
2022-08-11T18:43:46.700Z,50.90
2022-08-11T18:47:10.164Z,50.70
2022-08-11T18:50:38.404Z,50.70
2022-08-11T18:54:02.952Z,51.00
2022-08-11T18:57:26.821Z,51.00
2022-08-11T19:00:47.960Z,51.10
2022-08-11T19:04:11.109Z,51.20
2022-08-11T19:07:38.696Z,51.80
2022-08-11T19:11:01.218Z,52.10
2022-08-11T19:14:22.798Z,52.80
2022-08-11T19:17:45.955Z,52.40
2022-08-11T19:21:08.253Z,52.10
2022-08-11T19:24:32.364Z,52.50
2022-08-11T19:27:53.496Z,52.60
2022-08-11T19:31:14.859Z,52.40
2022-08-11T19:34:39.368Z,52.60
2022-08-11T19:38:01.919Z,52.70
2022-08-11T19:41:56.302Z,53.50
2022-08-11T19:45:03.680Z,53.20
2022-08-11T19:48:32.746Z,53.50
2022-08-11T19:51:55.000Z,55.60
2022-08-11T19:55:16.569Z,53.50
2022-08-11T19:58:37.069Z,53.40
2022-08-11T20:02:12.880Z,53.00
2022-08-11T20:05:34.553Z,53.80
2022-08-11T20:08:58.887Z,53.80
2022-08-11T20:12:21.146Z,55.30
2022-08-11T20:15:45.490Z,54.30
2022-08-11T20:19:07.861Z,54.30
2022-08-11T20:22:29.020Z,54.80
2022-08-11T20:25:53.133Z,55.20
2022-08-11T20:29:17.791Z,55.20
2022-08-11T20:32:38.215Z,55.90
2022-08-11T20:35:58.701Z,55.70
2022-08-11T20:39:20.829Z,53.80
2022-08-11T20:42:47.991Z,56.90
2022-08-11T20:46:08.378Z,55.30
2022-08-11T20:49:41.307Z,55.20
2022-08-11T20:53:10.572Z,56.30
2022-08-11T20:56:31.851Z,55.90
2022-08-11T20:59:56.947Z,57.10
2022-08-11T21:03:35.576Z,56.90
2022-08-11T21:07:06.003Z,55.20
2022-08-11T21:10:29.875Z,57.00
2022-08-11T21:13:55.798Z,56.60
2022-08-11T21:17:27.699Z,56.40
2022-08-11T21:20:50.130Z,55.70
2022-08-11T21:24:12.696Z,55.30
2022-08-11T21:27:38.540Z,56.90
2022-08-11T21:30:59.922Z,56.80
2022-08-11T21:34:21.352Z,55.80
2022-08-11T21:37:43.208Z,56.20
2022-08-11T21:41:06.588Z,56.80
2022-08-11T21:44:27.369Z,57.80
2022-08-11T21:47:49.353Z,55.60
2022-08-11T21:51:21.385Z,56.20
2022-08-11T21:54:43.704Z,55.20
2022-08-11T21:58:05.044Z,56.90
2022-08-11T22:01:26.923Z,57.50
2022-08-11T22:04:49.979Z,57.70
2022-08-11T22:08:10.837Z,55.80
2022-08-11T22:11:32.957Z,56.00
2022-08-11T22:14:53.447Z,57.40
2022-08-11T22:18:14.067Z,56.20
2022-08-11T22:22:01.687Z,56.40
2022-08-11T22:25:18.564Z,57.20
2022-08-11T22:28:39.207Z,58.30
2022-08-11T22:32:00.613Z,57.10
2022-08-11T22:35:22.106Z,57.40
2022-08-11T22:38:43.084Z,57.90
2022-08-11T22:42:03.508Z,58.90
2022-08-11T22:45:24.496Z,57.10
2022-08-11T22:48:48.026Z,58.60
2022-08-11T22:52:09.124Z,60.20
2022-08-11T22:55:29.587Z,58.90
2022-08-11T22:58:50.427Z,58.30
2022-08-11T23:02:11.304Z,59.50
2022-08-11T23:05:33.842Z,60.20
2022-08-11T23:08:55.691Z,61.20
2022-08-11T23:12:16.741Z,60.60
2022-08-11T23:15:39.233Z,60.50
2022-08-11T23:19:01.576Z,59.10
2022-08-11T23:22:22.303Z,59.70
2022-08-11T23:25:43.852Z,59.40
2022-08-11T23:29:06.172Z,60.10
2022-08-11T23:32:26.955Z,58.30
2022-08-11T23:35:53.890Z,58.70
2022-08-11T23:39:16.990Z,59.90
2022-08-11T23:42:37.547Z,58.70
2022-08-11T23:45:57.889Z,58.80
2022-08-11T23:49:20.639Z,59.50
2022-08-11T23:52:42.546Z,59.50
2022-08-11T23:56:03.018Z,61.40
2022-08-11T23:59:23.322Z,59.20
